sensor_id;sensor_type;location;lat;lon;timestamp;pressure;altitude;pressure_sealevel;temperature;humidity
80927;BME280;70385;44.538;18.532;2024-02-28T00:01:28;99336.63;;;7.00;100.00
80927;BME280;70385;44.538;18.532;2024-02-28T00:03:54;99348.75;;;7.02;100.00
80927;BME280;70385;44.538;18.532;2024-02-28T00:06:22;99346.34;;;6.95;100.00
80927;BME280;70385;44.538;18.532;2024-02-28T00:08:47;99346.59;;;6.86;100.00
80927;BME280;70385;44.538;18.532;2024-02-28T00:11:22;99347.50;;;6.85;100.00
80927;BME280;70385;44.538;18.532;2024-02-28T00:13:48;99345.13;;;6.78;100.00
80927;BME280;70385;44.538;18.532;2024-02-28T00:16:14;99359.88;;;6.77;100.00
80927;BME280;70385;44.538;18.532;2024-02-28T00:18:40;99358.19;;;6.75;100.00
80927;BME280;70385;44.538;18.532;2024-02-28T00:21:06;99348.75;;;6.72;100.00
80927;BME280;70385;44.538;18.532;2024-02-28T00:23:34;99351.44;;;6.69;100.00
80927;BME280;70385;44.538;18.532;2024-02-28T00:26:02;99361.09;;;6.65;100.00
80927;BME280;70385;44.538;18.532;2024-02-28T00:28:28;99361.50;;;6.50;100.00
80927;BME280;70385;44.538;18.532;2024-02-28T00:30:54;99359.91;;;6.46;100.00
80927;BME280;70385;44.538;18.532;2024-02-28T00:33:21;99360.09;;;6.40;100.00
80927;BME280;70385;44.538;18.532;2024-02-28T00:35:47;99358.53;;;6.33;100.00
80927;BME280;70385;44.538;18.532;2024-02-28T00:38:13;99361.22;;;6.30;100.00
80927;BME280;70385;44.538;18.532;2024-02-28T00:40:38;99364.94;;;6.21;100.00
80927;BME280;70385;44.538;18.532;2024-02-28T00:43:04;99358.22;;;6.13;100.00
80927;BME280;70385;44.538;18.532;2024-02-28T00:45:34;99369.38;;;6.16;100.00
80927;BME280;70385;44.538;18.532;2024-02-28T00:48:00;99371.22;;;6.13;100.00
80927;BME280;70385;44.538;18.532;2024-02-28T00:50:27;99366.06;;;6.11;100.00
80927;BME280;70385;44.538;18.532;2024-02-28T00:52:53;99373.03;;;6.09;100.00
80927;BME280;70385;44.538;18.532;2024-02-28T00:55:18;99358.59;;;5.99;100.00
80927;BME280;70385;44.538;18.532;2024-02-28T00:57:44;99367.31;;;5.96;100.00
80927;BME280;70385;44.538;18.532;2024-02-28T01:00:11;99369.91;;;5.96;100.00
80927;BME280;70385;44.538;18.532;2024-02-28T01:06:11;99374.63;;;5.81;100.00
80927;BME280;70385;44.538;18.532;2024-02-28T01:08:38;99370.13;;;5.87;100.00
80927;BME280;70385;44.538;18.532;2024-02-28T01:11:04;99376.16;;;5.88;100.00
80927;BME280;70385;44.538;18.532;2024-02-28T01:13:33;99374.72;;;5.76;100.00
80927;BME280;70385;44.538;18.532;2024-02-28T01:16:03;99374.84;;;5.71;100.00
80927;BME280;70385;44.538;18.532;2024-02-28T01:18:28;99382.59;;;5.73;100.00
80927;BME280;70385;44.538;18.532;2024-02-28T01:20:56;99367.28;;;5.62;100.00
80927;BME280;70385;44.538;18.532;2024-02-28T01:23:25;99366.47;;;5.60;100.00
80927;BME280;70385;44.538;18.532;2024-02-28T01:25:51;99369.97;;;5.59;100.00
80927;BME280;70385;44.538;18.532;2024-02-28T01:28:17;99355.41;;;5.52;100.00
80927;BME280;70385;44.538;18.532;2024-02-28T01:30:43;99357.84;;;5.58;100.00
80927;BME280;70385;44.538;18.532;2024-02-28T01:33:10;99358.63;;;5.63;100.00
80927;BME280;70385;44.538;18.532;2024-02-28T01:35:38;99366.44;;;5.62;100.00
80927;BME280;70385;44.538;18.532;2024-02-28T01:38:04;99369.00;;;5.63;100.00
80927;BME280;70385;44.538;18.532;2024-02-28T01:40:29;99370.09;;;5.53;100.00
80927;BME280;70385;44.538;18.532;2024-02-28T01:43:02;99375.47;;;5.45;100.00
80927;BME280;70385;44.538;18.532;2024-02-28T01:45:28;99366.75;;;5.48;100.00
80927;BME280;70385;44.538;18.532;2024-02-28T01:47:54;99370.41;;;5.41;100.00
80927;BME280;70385;44.538;18.532;2024-02-28T01:50:21;99367.63;;;5.48;100.00
80927;BME280;70385;44.538;18.532;2024-02-28T01:52:48;99359.88;;;5.47;100.00
80927;BME280;70385;44.538;18.532;2024-02-28T01:55:15;99360.13;;;5.36;100.00
80927;BME280;70385;44.538;18.532;2024-02-28T01:57:41;99367.94;;;5.35;100.00
80927;BME280;70385;44.538;18.532;2024-02-28T02:00:08;99359.44;;;5.28;100.00
80927;BME280;70385;44.538;18.532;2024-02-28T02:02:34;99358.75;;;5.22;100.00
80927;BME280;70385;44.538;18.532;2024-02-28T02:05:00;99371.69;;;5.23;100.00
80927;BME280;70385;44.538;18.532;2024-02-28T02:07:26;99370.88;;;5.19;100.00
80927;BME280;70385;44.538;18.532;2024-02-28T02:09:55;99366.56;;;5.18;100.00
80927;BME280;70385;44.538;18.532;2024-02-28T02:12:21;99363.13;;;5.18;100.00
80927;BME280;70385;44.538;18.532;2024-02-28T02:14:48;99350.97;;;5.20;100.00
80927;BME280;70385;44.538;18.532;2024-02-28T02:17:16;99363.94;;;5.22;100.00
80927;BME280;70385;44.538;18.532;2024-02-28T02:19:42;99358.75;;;5.22;100.00
80927;BME280;70385;44.538;18.532;2024-02-28T02:22:10;99357.91;;;5.21;100.00
80927;BME280;70385;44.538;18.532;2024-02-28T02:24:39;99359.41;;;5.30;100.00
80927;BME280;70385;44.538;18.532;2024-02-28T02:27:04;99349.06;;;5.28;100.00
80927;BME280;70385;44.538;18.532;2024-02-28T02:29:31;99349.94;;;5.29;100.00
80927;BME280;70385;44.538;18.532;2024-02-28T02:31:56;99360.13;;;5.36;100.00
80927;BME280;70385;44.538;18.532;2024-02-28T02:34:23;99360.22;;;5.32;100.00
80927;BME280;70385;44.538;18.532;2024-02-28T02:36:49;99370.56;;;5.33;100.00
80927;BME280;70385;44.538;18.532;2024-02-28T02:39:15;99361.16;;;5.29;100.00
80927;BME280;70385;44.538;18.532;2024-02-28T02:41:41;99368.97;;;5.28;100.00
80927;BME280;70385;44.538;18.532;2024-02-28T02:44:08;99367.13;;;5.33;100.00
80927;BME280;70385;44.538;18.532;2024-02-28T02:46:34;99358.56;;;5.29;100.00
80927;BME280;70385;44.538;18.532;2024-02-28T02:49:00;99372.38;;;5.30;100.00
80927;BME280;70385;44.538;18.532;2024-02-28T02:51:31;99369.00;;;5.26;100.00
80927;BME280;70385;44.538;18.532;2024-02-28T02:53:57;99373.53;;;5.16;100.00
80927;BME280;70385;44.538;18.532;2024-02-28T02:56:22;99376.94;;;5.18;100.00
80927;BME280;70385;44.538;18.532;2024-02-28T02:58:52;99375.94;;;5.26;100.00
80927;BME280;70385;44.538;18.532;2024-02-28T03:01:18;99376.78;;;5.26;100.00
80927;BME280;70385;44.538;18.532;2024-02-28T03:03:47;99380.31;;;5.24;100.00
80927;BME280;70385;44.538;18.532;2024-02-28T03:06:14;99391.44;;;5.29;100.00
80927;BME280;70385;44.538;18.532;2024-02-28T03:08:40;99381.97;;;5.26;100.00
80927;BME280;70385;44.538;18.532;2024-02-28T03:11:07;99382.91;;;5.24;100.00
80927;BME280;70385;44.538;18.532;2024-02-28T03:13:34;99375.91;;;5.27;100.00
80927;BME280;70385;44.538;18.532;2024-02-28T03:16:07;99381.06;;;5.29;100.00
80927;BME280;70385;44.538;18.532;2024-02-28T03:18:33;99383.84;;;5.21;100.00
80927;BME280;70385;44.538;18.532;2024-02-28T03:21:00;99394.31;;;5.15;100.00
80927;BME280;70385;44.538;18.532;2024-02-28T03:23:29;99388.59;;;5.02;100.00
80927;BME280;70385;44.538;18.532;2024-02-28T03:25:57;99393.78;;;5.01;100.00
80927;BME280;70385;44.538;18.532;2024-02-28T03:28:23;99392.28;;;4.91;100.00
80927;BME280;70385;44.538;18.532;2024-02-28T03:30:49;99393.41;;;4.77;100.00
80927;BME280;70385;44.538;18.532;2024-02-28T03:33:15;99388.44;;;4.68;100.00
80927;BME280;70385;44.538;18.532;2024-02-28T03:35:41;99391.94;;;4.66;100.00
80927;BME280;70385;44.538;18.532;2024-02-28T03:38:08;99393.78;;;4.59;100.00
80927;BME280;70385;44.538;18.532;2024-02-28T03:40:33;99403.38;;;4.55;100.00
80927;BME280;70385;44.538;18.532;2024-02-28T03:43:00;99404.25;;;4.54;100.00
80927;BME280;70385;44.538;18.532;2024-02-28T03:45:36;99409.31;;;4.61;100.00
80927;BME280;70385;44.538;18.532;2024-02-28T03:48:02;99407.69;;;4.55;100.00
80927;BME280;70385;44.538;18.532;2024-02-28T03:50:28;99404.31;;;4.51;100.00
80927;BME280;70385;44.538;18.532;2024-02-28T03:53:04;99406.19;;;4.43;100.00
80927;BME280;70385;44.538;18.532;2024-02-28T03:55:33;99400.25;;;4.38;100.00
80927;BME280;70385;44.538;18.532;2024-02-28T03:58:03;99407.03;;;4.45;100.00
80927;BME280;70385;44.538;18.532;2024-02-28T04:00:29;99406.19;;;4.43;100.00
80927;BME280;70385;44.538;18.532;2024-02-28T04:02:57;99414.81;;;4.45;100.00
80927;BME280;70385;44.538;18.532;2024-02-28T04:05:24;99417.44;;;4.42;100.00
80927;BME280;70385;44.538;18.532;2024-02-28T04:07:49;99414.81;;;4.45;100.00
80927;BME280;70385;44.538;18.532;2024-02-28T04:10:17;99414.84;;;4.42;100.00
80927;BME280;70385;44.538;18.532;2024-02-28T04:12:44;99412.16;;;4.48;100.00
80927;BME280;70385;44.538;18.532;2024-02-28T04:15:13;99401.94;;;4.39;100.00
80927;BME280;70385;44.538;18.532;2024-02-28T04:17:40;99414.91;;;4.39;100.00
80927;BME280;70385;44.538;18.532;2024-02-28T04:20:15;99409.81;;;4.35;100.00
80927;BME280;70385;44.538;18.532;2024-02-28T04:22:56;99410.09;;;4.19;100.00
80927;BME280;70385;44.538;18.532;2024-02-28T04:28:13;99409.28;;;4.16;100.00
80927;BME280;70385;44.538;18.532;2024-02-28T04:30:39;99417.88;;;4.18;100.00
80927;BME280;70385;44.538;18.532;2024-02-28T04:33:06;99419.53;;;4.22;100.00
80927;BME280;70385;44.538;18.532;2024-02-28T04:35:33;99418.75;;;4.18;100.00
80927;BME280;70385;44.538;18.532;2024-02-28T04:37:59;99412.84;;;4.10;100.00
80927;BME280;70385;44.538;18.532;2024-02-28T04:40:27;99427.63;;;4.04;100.00
80927;BME280;70385;44.538;18.532;2024-02-28T04:42:56;99425.91;;;4.03;100.00
80927;BME280;70385;44.538;18.532;2024-02-28T04:45:22;99420.78;;;4.00;100.00
80927;BME280;70385;44.538;18.532;2024-02-28T04:47:48;99431.84;;;4.11;100.00
80927;BME280;70385;44.538;18.532;2024-02-28T04:50:19;99423.28;;;4.07;100.00
80927;BME280;70385;44.538;18.532;2024-02-28T04:52:45;99442.19;;;4.11;100.00
80927;BME280;70385;44.538;18.532;2024-02-28T04:55:12;99433.66;;;4.06;100.00
80927;BME280;70385;44.538;18.532;2024-02-28T04:57:38;99441.63;;;3.93;100.00
80927;BME280;70385;44.538;18.532;2024-02-28T05:00:04;99442.56;;;3.89;100.00
80927;BME280;70385;44.538;18.532;2024-02-28T05:02:31;99439.91;;;3.92;100.00
80927;BME280;70385;44.538;18.532;2024-02-28T05:04:57;99432.16;;;3.92;100.00
80927;BME280;70385;44.538;18.532;2024-02-28T05:07:27;99429.44;;;3.99;100.00
80927;BME280;70385;44.538;18.532;2024-02-28T05:09:58;99437.16;;;4.02;100.00
80927;BME280;70385;44.538;18.532;2024-02-28T05:12:48;99437.97;;;4.04;100.00
80927;BME280;70385;44.538;18.532;2024-02-28T05:15:22;99444.75;;;4.12;100.00
80927;BME280;70385;44.538;18.532;2024-02-28T05:17:55;99443.06;;;4.10;100.00
80927;BME280;70385;44.538;18.532;2024-02-28T05:20:21;99443.03;;;4.13;100.00
80927;BME280;70385;44.538;18.532;2024-02-28T05:22:46;99440.44;;;4.13;100.00
80927;BME280;70385;44.538;18.532;2024-02-28T05:25:13;99448.19;;;4.13;100.00
80927;BME280;70385;44.538;18.532;2024-02-28T05:27:39;99444.09;;;4.00;100.00
80927;BME280;70385;44.538;18.532;2024-02-28T05:30:05;99457.16;;;3.93;100.00
80927;BME280;70385;44.538;18.532;2024-02-28T05:32:35;99457.16;;;3.93;100.00
80927;BME280;70385;44.538;18.532;2024-02-28T05:35:03;99464.91;;;3.93;100.00
80927;BME280;70385;44.538;18.532;2024-02-28T05:37:29;99463.16;;;3.95;100.00
80927;BME280;70385;44.538;18.532;2024-02-28T05:39:56;99463.03;;;4.02;100.00
80927;BME280;70385;44.538;18.532;2024-02-28T05:42:22;99471.53;;;4.11;100.00
80927;BME280;70385;44.538;18.532;2024-02-28T05:44:49;99475.00;;;4.10;100.00
80927;BME280;70385;44.538;18.532;2024-02-28T05:47:19;99469.75;;;4.15;100.00
80927;BME280;70385;44.538;18.532;2024-02-28T05:49:46;99477.38;;;4.22;100.00
80927;BME280;70385;44.538;18.532;2024-02-28T05:52:13;99480.81;;;4.23;100.00
80927;BME280;70385;44.538;18.532;2024-02-28T05:54:40;99485.06;;;4.29;100.00
80927;BME280;70385;44.538;18.532;2024-02-28T05:57:07;99487.56;;;4.33;100.00
80927;BME280;70385;44.538;18.532;2024-02-28T05:59:33;99502.16;;;4.37;100.00
80927;BME280;70385;44.538;18.532;2024-02-28T06:02:00;99482.41;;;4.32;100.00
80927;BME280;70385;44.538;18.532;2024-02-28T06:04:26;99494.50;;;4.31;100.00
80927;BME280;70385;44.538;18.532;2024-02-28T06:06:52;99505.75;;;4.30;100.00
80927;BME280;70385;44.538;18.532;2024-02-28T06:09:18;99497.19;;;4.26;100.00
80927;BME280;70385;44.538;18.532;2024-02-28T06:11:43;99503.06;;;4.35;100.00
80927;BME280;70385;44.538;18.532;2024-02-28T06:14:10;99502.16;;;4.37;100.00
80927;BME280;70385;44.538;18.532;2024-02-28T06:16:38;99508.06;;;4.45;100.00
80927;BME280;70385;44.538;18.532;2024-02-28T06:19:06;99510.50;;;4.54;100.00
80927;BME280;70385;44.538;18.532;2024-02-28T06:21:32;99510.44;;;4.57;100.00
80927;BME280;70385;44.538;18.532;2024-02-28T06:23:59;99519.72;;;4.69;100.00
80927;BME280;70385;44.538;18.532;2024-02-28T06:26:25;99517.09;;;4.71;100.00
80927;BME280;70385;44.538;18.532;2024-02-28T06:28:51;99519.56;;;4.77;100.00
80927;BME280;70385;44.538;18.532;2024-02-28T06:31:19;99512.53;;;4.85;100.00
80927;BME280;70385;44.538;18.532;2024-02-28T06:33:45;99523.56;;;4.95;100.00
80927;BME280;70385;44.538;18.532;2024-02-28T06:36:11;99528.56;;;5.05;100.00
80927;BME280;70385;44.538;18.532;2024-02-28T06:38:37;99513.16;;;4.96;100.00
80927;BME280;70385;44.538;18.532;2024-02-28T06:41:05;99516.50;;;5.03;100.00
80927;BME280;70385;44.538;18.532;2024-02-28T06:43:35;99515.66;;;5.02;100.00
80927;BME280;70385;44.538;18.532;2024-02-28T06:46:02;99513.78;;;5.09;100.00
80927;BME280;70385;44.538;18.532;2024-02-28T06:48:28;99520.47;;;5.21;100.00
80927;BME280;70385;44.538;18.532;2024-02-28T06:51:21;99523.63;;;5.33;100.00
80927;BME280;70385;44.538;18.532;2024-02-28T06:53:57;99526.84;;;5.46;100.00
80927;BME280;70385;44.538;18.532;2024-02-28T06:56:24;99538.75;;;5.55;100.00
80927;BME280;70385;44.538;18.532;2024-02-28T06:58:51;99538.59;;;5.62;100.00
80927;BME280;70385;44.538;18.532;2024-02-28T07:01:18;99553.06;;;5.72;100.00
80927;BME280;70385;44.538;18.532;2024-02-28T07:03:46;99540.81;;;5.81;100.00
80927;BME280;70385;44.538;18.532;2024-02-28T07:06:12;99548.31;;;5.93;100.00
80927;BME280;70385;44.538;18.532;2024-02-28T07:08:39;99553.41;;;5.97;100.00
80927;BME280;70385;44.538;18.532;2024-02-28T07:11:05;99540.59;;;5.88;100.00
80927;BME280;70385;44.538;18.532;2024-02-28T07:13:32;99542.91;;;6.03;100.00
80927;BME280;70385;44.538;18.532;2024-02-28T07:15:59;99552.06;;;6.18;100.00
80927;BME280;70385;44.538;18.532;2024-02-28T07:18:27;99558.66;;;6.31;100.00
80927;BME280;70385;44.538;18.532;2024-02-28T07:20:55;99553.53;;;6.28;100.00
80927;BME280;70385;44.538;18.532;2024-02-28T07:23:24;99553.25;;;6.41;100.00
80927;BME280;70385;44.538;18.532;2024-02-28T07:25:55;99546.19;;;6.46;100.00
80927;BME280;70385;44.538;18.532;2024-02-28T07:28:27;99540.75;;;6.56;100.00
80927;BME280;70385;44.538;18.532;2024-02-28T07:31:02;99545.19;;;6.51;100.00
80927;BME280;70385;44.538;18.532;2024-02-28T07:33:34;99548.88;;;6.77;100.00
80927;BME280;70385;44.538;18.532;2024-02-28T07:36:02;99553.59;;;6.93;100.00
80927;BME280;70385;44.538;18.532;2024-02-28T07:38:28;99554.22;;;7.03;100.00
80927;BME280;70385;44.538;18.532;2024-02-28T07:40:56;99550.44;;;7.15;100.00
80927;BME280;70385;44.538;18.532;2024-02-28T07:43:23;99557.88;;;7.27;100.00
80927;BME280;70385;44.538;18.532;2024-02-28T07:45:51;99544.91;;;7.25;100.00
80927;BME280;70385;44.538;18.532;2024-02-28T07:48:17;99550.97;;;7.57;100.00
80927;BME280;70385;44.538;18.532;2024-02-28T07:50:44;99552.97;;;7.77;100.00
80927;BME280;70385;44.538;18.532;2024-02-28T07:53:14;99555.91;;;7.94;100.00
80927;BME280;70385;44.538;18.532;2024-02-28T07:55:40;99546.91;;;8.04;100.00
80927;BME280;70385;44.538;18.532;2024-02-28T07:58:07;99544.16;;;8.37;100.00
80927;BME280;70385;44.538;18.532;2024-02-28T08:00:35;99553.63;;;8.39;100.00
80927;BME280;70385;44.538;18.532;2024-02-28T08:03:01;99546.84;;;9.10;100.00
80927;BME280;70385;44.538;18.532;2024-02-28T08:05:28;99546.63;;;9.63;100.00
80927;BME280;70385;44.538;18.532;2024-02-28T08:07:56;99558.03;;;9.84;100.00
80927;BME280;70385;44.538;18.532;2024-02-28T08:10:22;99558.47;;;9.95;100.00
80927;BME280;70385;44.538;18.532;2024-02-28T08:12:50;99547.44;;;10.32;100.00
80927;BME280;70385;44.538;18.532;2024-02-28T08:15:17;99549.84;;;10.37;100.00
80927;BME280;70385;44.538;18.532;2024-02-28T08:17:44;99541.53;;;10.69;100.00
80927;BME280;70385;44.538;18.532;2024-02-28T08:20:10;99534.63;;;11.07;100.00
80927;BME280;70385;44.538;18.532;2024-02-28T08:22:38;99534.44;;;11.12;100.00
80927;BME280;70385;44.538;18.532;2024-02-28T08:25:04;99526.97;;;11.23;100.00
80927;BME280;70385;44.538;18.532;2024-02-28T08:27:30;99524.06;;;11.29;100.00
80927;BME280;70385;44.538;18.532;2024-02-28T08:29:57;99524.69;;;11.72;100.00
80927;BME280;70385;44.538;18.532;2024-02-28T08:32:23;99517.94;;;11.87;100.00
80927;BME280;70385;44.538;18.532;2024-02-28T08:34:49;99525.38;;;12.13;100.00
80927;BME280;70385;44.538;18.532;2024-02-28T08:37:16;99517.53;;;12.30;100.00
80927;BME280;70385;44.538;18.532;2024-02-28T08:39:44;99518.19;;;12.53;100.00
80927;BME280;70385;44.538;18.532;2024-02-28T08:42:12;99520.28;;;12.63;100.00
80927;BME280;70385;44.538;18.532;2024-02-28T08:44:39;99525.94;;;12.73;100.00
80927;BME280;70385;44.538;18.532;2024-02-28T08:47:05;99522.97;;;12.44;100.00
80927;BME280;70385;44.538;18.532;2024-02-28T08:49:35;99530.03;;;12.25;100.00
80927;BME280;70385;44.538;18.532;2024-02-28T08:52:01;99520.44;;;12.60;100.00
80927;BME280;70385;44.538;18.532;2024-02-28T08:54:28;99520.41;;;12.95;100.00
80927;BME280;70385;44.538;18.532;2024-02-28T08:56:55;99524.84;;;13.27;100.00
80927;BME280;70385;44.538;18.532;2024-02-28T08:59:21;99516.31;;;13.40;100.00
80927;BME280;70385;44.538;18.532;2024-02-28T09:01:57;99523.28;;;13.56;100.00
80927;BME280;70385;44.538;18.532;2024-02-28T09:04:25;99521.44;;;13.58;100.00
80927;BME280;70385;44.538;18.532;2024-02-28T09:06:51;99522.56;;;13.70;100.00
80927;BME280;70385;44.538;18.532;2024-02-28T09:09:19;99519.56;;;13.76;100.00
80927;BME280;70385;44.538;18.532;2024-02-28T09:11:48;99522.78;;;13.65;100.00
80927;BME280;70385;44.538;18.532;2024-02-28T09:14:13;99516.09;;;13.76;100.00
80927;BME280;70385;44.538;18.532;2024-02-28T09:16:42;99506.44;;;13.92;100.00
80927;BME280;70385;44.538;18.532;2024-02-28T09:19:10;99503.72;;;13.78;100.00
80927;BME280;70385;44.538;18.532;2024-02-28T09:21:36;99524.88;;;14.06;100.00
80927;BME280;70385;44.538;18.532;2024-02-28T09:24:05;99514.63;;;14.17;100.00
80927;BME280;70385;44.538;18.532;2024-02-28T09:26:41;99507.09;;;14.41;100.00
80927;BME280;70385;44.538;18.532;2024-02-28T09:29:22;99497.59;;;14.54;96.74
80927;BME280;70385;44.538;18.532;2024-02-28T09:32:24;99502.94;;;14.53;95.08
80927;BME280;70385;44.538;18.532;2024-02-28T09:35:26;99503.47;;;14.74;92.93
80927;BME280;70385;44.538;18.532;2024-02-28T09:38:12;99503.00;;;14.96;92.98
80927;BME280;70385;44.538;18.532;2024-02-28T09:40:38;99505.28;;;15.16;92.70
80927;BME280;70385;44.538;18.532;2024-02-28T09:43:15;99502.47;;;15.33;87.64
80927;BME280;70385;44.538;18.532;2024-02-28T09:45:47;99506.97;;;15.45;85.44
80927;BME280;70385;44.538;18.532;2024-02-28T09:48:16;99516.09;;;15.54;86.52
80927;BME280;70385;44.538;18.532;2024-02-28T09:50:52;99498.66;;;15.80;82.67
80927;BME280;70385;44.538;18.532;2024-02-28T09:53:21;99494.78;;;15.86;80.36
80927;BME280;70385;44.538;18.532;2024-02-28T09:55:52;99494.88;;;16.11;78.94
80927;BME280;70385;44.538;18.532;2024-02-28T09:58:19;99496.41;;;16.28;76.52
80927;BME280;70385;44.538;18.532;2024-02-28T10:00:48;99496.47;;;16.41;79.48
80927;BME280;70385;44.538;18.532;2024-02-28T10:03:19;99506.72;;;16.58;78.80
80927;BME280;70385;44.538;18.532;2024-02-28T10:05:47;99493.38;;;16.74;74.90
80927;BME280;70385;44.538;18.532;2024-02-28T10:08:15;99508.63;;;16.83;76.13
80927;BME280;70385;44.538;18.532;2024-02-28T10:10:48;99491.06;;;16.94;75.06
80927;BME280;70385;44.538;18.532;2024-02-28T10:13:18;99489.59;;;17.03;71.69
80927;BME280;70385;44.538;18.532;2024-02-28T10:15:52;99492.53;;;17.37;72.64
80927;BME280;70385;44.538;18.532;2024-02-28T10:18:20;99506.16;;;17.56;73.13
80927;BME280;70385;44.538;18.532;2024-02-28T10:20:48;99491.00;;;17.58;70.46
80927;BME280;70385;44.538;18.532;2024-02-28T10:23:16;99487.34;;;17.84;71.82
80927;BME280;70385;44.538;18.532;2024-02-28T10:25:48;99492.13;;;17.67;69.66
80927;BME280;70385;44.538;18.532;2024-02-28T10:28:16;99487.81;;;17.78;69.81
80927;BME280;70385;44.538;18.532;2024-02-28T10:30:44;99485.88;;;17.80;68.73
80927;BME280;70385;44.538;18.532;2024-02-28T10:33:14;99486.13;;;17.77;68.03
80927;BME280;70385;44.538;18.532;2024-02-28T10:35:42;99477.22;;;17.78;68.61
80927;BME280;70385;44.538;18.532;2024-02-28T10:38:13;99476.25;;;17.79;68.22
80927;BME280;70385;44.538;18.532;2024-02-28T10:40:42;99481.25;;;17.71;67.71
80927;BME280;70385;44.538;18.532;2024-02-28T10:43:09;99470.13;;;17.66;66.24
80927;BME280;70385;44.538;18.532;2024-02-28T10:45:38;99473.00;;;17.76;66.21
80927;BME280;70385;44.538;18.532;2024-02-28T10:48:07;99462.75;;;17.95;64.91
80927;BME280;70385;44.538;18.532;2024-02-28T10:50:43;99469.22;;;18.15;64.14
80927;BME280;70385;44.538;18.532;2024-02-28T10:53:13;99459.25;;;18.54;63.82
80927;BME280;70385;44.538;18.532;2024-02-28T10:55:44;99464.56;;;18.54;61.80
80927;BME280;70385;44.538;18.532;2024-02-28T10:58:15;99457.09;;;18.59;61.37
80927;BME280;70385;44.538;18.532;2024-02-28T11:00:45;99465.84;;;18.83;58.53
80927;BME280;70385;44.538;18.532;2024-02-28T11:03:16;99454.00;;;18.65;57.25
80927;BME280;70385;44.538;18.532;2024-02-28T11:05:43;99461.94;;;18.65;58.14
80927;BME280;70385;44.538;18.532;2024-02-28T11:08:22;99461.06;;;18.29;58.76
80927;BME280;70385;44.538;18.532;2024-02-28T11:10:58;99449.56;;;18.76;56.15
80927;BME280;70385;44.538;18.532;2024-02-28T11:13:29;99453.44;;;18.84;54.85
80927;BME280;70385;44.538;18.532;2024-02-28T11:16:09;99448.63;;;19.22;51.08
80927;BME280;70385;44.538;18.532;2024-02-28T11:18:35;99446.94;;;19.21;51.03
80927;BME280;70385;44.538;18.532;2024-02-28T11:21:16;99440.81;;;19.09;47.66
80927;BME280;70385;44.538;18.532;2024-02-28T11:23:46;99446.69;;;19.35;46.48
80927;BME280;70385;44.538;18.532;2024-02-28T11:26:16;99443.19;;;19.35;44.90
80927;BME280;70385;44.538;18.532;2024-02-28T11:28:45;99438.25;;;19.30;45.00
80927;BME280;70385;44.538;18.532;2024-02-28T11:31:13;99434.47;;;19.66;44.49
80927;BME280;70385;44.538;18.532;2024-02-28T11:33:39;99430.28;;;20.28;43.55
80927;BME280;70385;44.538;18.532;2024-02-28T11:36:06;99428.09;;;20.33;43.38
80927;BME280;70385;44.538;18.532;2024-02-28T11:38:35;99433.84;;;20.38;41.96
80927;BME280;70385;44.538;18.532;2024-02-28T11:41:04;99430.06;;;20.20;40.42
80927;BME280;70385;44.538;18.532;2024-02-28T11:43:34;99423.72;;;20.11;42.45
80927;BME280;70385;44.538;18.532;2024-02-28T11:46:09;99427.50;;;20.29;41.67
80927;BME280;70385;44.538;18.532;2024-02-28T11:48:36;99425.19;;;20.57;40.42
80927;BME280;70385;44.538;18.532;2024-02-28T11:51:05;99428.75;;;20.25;42.07
80927;BME280;70385;44.538;18.532;2024-02-28T11:53:31;99421.28;;;19.87;40.38
80927;BME280;70385;44.538;18.532;2024-02-28T11:55:58;99423.47;;;19.82;39.93
80927;BME280;70385;44.538;18.532;2024-02-28T11:58:32;99418.19;;;19.71;40.04
80927;BME280;70385;44.538;18.532;2024-02-28T12:00:59;99399.75;;;20.22;39.80
80927;BME280;70385;44.538;18.532;2024-02-28T12:03:25;99402.03;;;20.27;39.07
80927;BME280;70385;44.538;18.532;2024-02-28T12:05:57;99393.84;;;20.40;39.33
80927;BME280;70385;44.538;18.532;2024-02-28T12:08:24;99396.28;;;20.43;39.02
80927;BME280;70385;44.538;18.532;2024-02-28T12:10:52;99398.59;;;20.15;39.00
80927;BME280;70385;44.538;18.532;2024-02-28T12:13:18;99395.91;;;19.94;39.96
80927;BME280;70385;44.538;18.532;2024-02-28T12:15:49;99388.22;;;19.80;40.68
80927;BME280;70385;44.538;18.532;2024-02-28T12:18:15;99395.81;;;19.85;41.62
80927;BME280;70385;44.538;18.532;2024-02-28T12:20:42;99386.16;;;19.84;40.97
80927;BME280;70385;44.538;18.532;2024-02-28T12:23:08;99391.50;;;20.05;40.66
80927;BME280;70385;44.538;18.532;2024-02-28T12:25:39;99387.97;;;19.83;41.01
80927;BME280;70385;44.538;18.532;2024-02-28T12:28:09;99390.25;;;19.56;42.02
80927;BME280;70385;44.538;18.532;2024-02-28T12:30:40;99382.50;;;19.53;42.28
80927;BME280;70385;44.538;18.532;2024-02-28T12:33:10;99393.03;;;19.54;40.94
80927;BME280;70385;44.538;18.532;2024-02-28T12:35:39;99385.16;;;19.53;41.12
80927;BME280;70385;44.538;18.532;2024-02-28T12:38:16;99381.66;;;19.41;41.23
80927;BME280;70385;44.538;18.532;2024-02-28T12:40:42;99376.25;;;19.54;40.93
80927;BME280;70385;44.538;18.532;2024-02-28T12:43:08;99384.06;;;19.44;41.41
80927;BME280;70385;44.538;18.532;2024-02-28T12:45:37;99379.13;;;19.62;39.82
80927;BME280;70385;44.538;18.532;2024-02-28T12:48:03;99371.88;;;19.64;40.30
80927;BME280;70385;44.538;18.532;2024-02-28T12:50:32;99368.34;;;19.75;39.62
80927;BME280;70385;44.538;18.532;2024-02-28T12:52:59;99375.31;;;19.87;39.60
80927;BME280;70385;44.538;18.532;2024-02-28T12:55:25;99371.63;;;19.99;40.50
80927;BME280;70385;44.538;18.532;2024-02-28T12:57:51;99377.19;;;19.96;42.26
80927;BME280;70385;44.538;18.532;2024-02-28T13:00:18;99372.94;;;19.73;43.78